sensor_id;sensor_type;location;lat;lon;timestamp;temperature;humidity
40952;DHT22;26682;51.660;19.338;2023-12-29T00:00:09;3.80;99.90
40952;DHT22;26682;51.660;19.338;2023-12-29T00:03:13;3.80;99.90
40952;DHT22;26682;51.660;19.338;2023-12-29T00:05:56;3.80;99.90
40952;DHT22;26682;51.660;19.338;2023-12-29T00:08:38;3.80;99.90
40952;DHT22;26682;51.660;19.338;2023-12-29T00:11:21;3.80;99.90
40952;DHT22;26682;51.660;19.338;2023-12-29T00:14:04;3.80;99.90
40952;DHT22;26682;51.660;19.338;2023-12-29T00:16:46;3.80;99.90
40952;DHT22;26682;51.660;19.338;2023-12-29T00:19:28;3.70;99.90
40952;DHT22;26682;51.660;19.338;2023-12-29T00:22:11;3.70;99.90
40952;DHT22;26682;51.660;19.338;2023-12-29T00:24:54;3.60;99.90
40952;DHT22;26682;51.660;19.338;2023-12-29T00:27:36;3.60;99.90
40952;DHT22;26682;51.660;19.338;2023-12-29T00:30:19;3.60;99.90
40952;DHT22;26682;51.660;19.338;2023-12-29T00:33:02;3.50;99.90
40952;DHT22;26682;51.660;19.338;2023-12-29T00:35:45;3.50;99.90
40952;DHT22;26682;51.660;19.338;2023-12-29T00:38:27;3.50;99.90
40952;DHT22;26682;51.660;19.338;2023-12-29T00:41:10;3.50;99.90
40952;DHT22;26682;51.660;19.338;2023-12-29T00:43:53;3.50;99.90
40952;DHT22;26682;51.660;19.338;2023-12-29T00:46:36;3.50;99.90
40952;DHT22;26682;51.660;19.338;2023-12-29T00:49:18;3.50;99.90
40952;DHT22;26682;51.660;19.338;2023-12-29T00:52:01;3.60;99.90
40952;DHT22;26682;51.660;19.338;2023-12-29T00:54:45;3.60;99.90
40952;DHT22;26682;51.660;19.338;2023-12-29T00:57:28;3.60;99.90
40952;DHT22;26682;51.660;19.338;2023-12-29T01:00:12;3.60;99.90
40952;DHT22;26682;51.660;19.338;2023-12-29T01:02:54;3.70;99.90
40952;DHT22;26682;51.660;19.338;2023-12-29T01:05:37;3.70;99.90
40952;DHT22;26682;51.660;19.338;2023-12-29T01:08:20;3.70;96.50
40952;DHT22;26682;51.660;19.338;2023-12-29T01:11:03;3.60;1.00
40952;DHT22;26682;51.660;19.338;2023-12-29T01:13:46;3.60;1.00
40952;DHT22;26682;51.660;19.338;2023-12-29T01:16:28;3.60;1.00
40952;DHT22;26682;51.660;19.338;2023-12-29T01:19:11;3.60;1.50
40952;DHT22;26682;51.660;19.338;2023-12-29T01:21:53;3.60;14.50
40952;DHT22;26682;51.660;19.338;2023-12-29T01:24:37;3.60;1.00
40952;DHT22;26682;51.660;19.338;2023-12-29T01:27:28;3.60;1.00
40952;DHT22;26682;51.660;19.338;2023-12-29T01:30:11;3.50;1.00
40952;DHT22;26682;51.660;19.338;2023-12-29T01:32:54;3.50;1.00
40952;DHT22;26682;51.660;19.338;2023-12-29T01:35:38;3.50;27.40
40952;DHT22;26682;51.660;19.338;2023-12-29T01:38:22;3.50;95.80
40952;DHT22;26682;51.660;19.338;2023-12-29T01:41:04;3.50;66.10
40952;DHT22;26682;51.660;19.338;2023-12-29T01:46:44;3.50;68.60
40952;DHT22;26682;51.660;19.338;2023-12-29T01:49:29;3.50;99.90
40952;DHT22;26682;51.660;19.338;2023-12-29T01:52:13;3.40;99.90
40952;DHT22;26682;51.660;19.338;2023-12-29T01:54:56;3.40;99.90
40952;DHT22;26682;51.660;19.338;2023-12-29T01:57:40;3.30;99.90
40952;DHT22;26682;51.660;19.338;2023-12-29T02:00:23;3.30;99.90
40952;DHT22;26682;51.660;19.338;2023-12-29T02:03:06;3.30;99.90
40952;DHT22;26682;51.660;19.338;2023-12-29T02:05:48;3.20;99.90
40952;DHT22;26682;51.660;19.338;2023-12-29T02:08:32;3.20;99.90
40952;DHT22;26682;51.660;19.338;2023-12-29T02:11:14;3.20;99.90
40952;DHT22;26682;51.660;19.338;2023-12-29T02:14:00;3.10;99.90
40952;DHT22;26682;51.660;19.338;2023-12-29T02:19:49;3.00;1.00
40952;DHT22;26682;51.660;19.338;2023-12-29T02:22:32;3.00;99.90
40952;DHT22;26682;51.660;19.338;2023-12-29T02:25:16;3.00;99.90
40952;DHT22;26682;51.660;19.338;2023-12-29T02:28:19;3.00;99.90
40952;DHT22;26682;51.660;19.338;2023-12-29T02:31:24;3.00;99.90
40952;DHT22;26682;51.660;19.338;2023-12-29T02:34:08;3.00;99.90
40952;DHT22;26682;51.660;19.338;2023-12-29T02:36:54;3.00;99.90
40952;DHT22;26682;51.660;19.338;2023-12-29T02:39:38;3.00;99.90
40952;DHT22;26682;51.660;19.338;2023-12-29T02:42:22;3.00;99.90
40952;DHT22;26682;51.660;19.338;2023-12-29T02:45:04;3.00;99.90
40952;DHT22;26682;51.660;19.338;2023-12-29T02:47:48;3.00;99.90
40952;DHT22;26682;51.660;19.338;2023-12-29T02:50:31;3.00;99.90
40952;DHT22;26682;51.660;19.338;2023-12-29T02:53:13;3.00;99.90
40952;DHT22;26682;51.660;19.338;2023-12-29T02:55:56;3.00;99.90
40952;DHT22;26682;51.660;19.338;2023-12-29T02:58:38;3.10;99.90
40952;DHT22;26682;51.660;19.338;2023-12-29T03:01:20;3.10;99.90
40952;DHT22;26682;51.660;19.338;2023-12-29T03:04:03;3.10;99.90
40952;DHT22;26682;51.660;19.338;2023-12-29T03:06:46;3.20;99.90
40952;DHT22;26682;51.660;19.338;2023-12-29T03:09:29;3.20;99.90
40952;DHT22;26682;51.660;19.338;2023-12-29T03:12:12;3.10;99.90
40952;DHT22;26682;51.660;19.338;2023-12-29T03:14:55;3.10;99.90
40952;DHT22;26682;51.660;19.338;2023-12-29T03:17:37;3.10;99.90
40952;DHT22;26682;51.660;19.338;2023-12-29T03:20:20;3.10;99.90
40952;DHT22;26682;51.660;19.338;2023-12-29T03:23:03;3.10;99.90
40952;DHT22;26682;51.660;19.338;2023-12-29T03:25:46;3.10;99.90
40952;DHT22;26682;51.660;19.338;2023-12-29T03:28:28;3.10;99.90
40952;DHT22;26682;51.660;19.338;2023-12-29T03:31:10;3.20;99.90
40952;DHT22;26682;51.660;19.338;2023-12-29T03:33:54;3.20;99.90
40952;DHT22;26682;51.660;19.338;2023-12-29T03:36:37;3.30;99.90
40952;DHT22;26682;51.660;19.338;2023-12-29T03:39:19;3.30;99.90
40952;DHT22;26682;51.660;19.338;2023-12-29T03:42:02;3.40;99.90
40952;DHT22;26682;51.660;19.338;2023-12-29T03:44:44;3.40;99.90
40952;DHT22;26682;51.660;19.338;2023-12-29T03:47:27;3.40;99.90
40952;DHT22;26682;51.660;19.338;2023-12-29T03:50:10;3.50;99.90
40952;DHT22;26682;51.660;19.338;2023-12-29T03:52:52;3.40;99.90
40952;DHT22;26682;51.660;19.338;2023-12-29T03:55:34;3.40;99.90
40952;DHT22;26682;51.660;19.338;2023-12-29T03:58:17;3.50;99.90
40952;DHT22;26682;51.660;19.338;2023-12-29T04:00:59;3.50;99.90
40952;DHT22;26682;51.660;19.338;2023-12-29T04:03:43;3.50;99.90
40952;DHT22;26682;51.660;19.338;2023-12-29T04:06:25;3.60;99.90
40952;DHT22;26682;51.660;19.338;2023-12-29T04:09:08;3.70;99.90
40952;DHT22;26682;51.660;19.338;2023-12-29T04:11:50;3.70;99.90
40952;DHT22;26682;51.660;19.338;2023-12-29T04:14:33;3.70;99.90
40952;DHT22;26682;51.660;19.338;2023-12-29T04:17:15;3.80;99.90
40952;DHT22;26682;51.660;19.338;2023-12-29T04:19:57;3.80;99.90
40952;DHT22;26682;51.660;19.338;2023-12-29T04:22:42;3.80;99.90
40952;DHT22;26682;51.660;19.338;2023-12-29T04:25:25;3.90;99.90
40952;DHT22;26682;51.660;19.338;2023-12-29T04:28:08;3.90;99.90
40952;DHT22;26682;51.660;19.338;2023-12-29T04:30:52;3.90;99.90
40952;DHT22;26682;51.660;19.338;2023-12-29T04:33:34;4.00;99.90
40952;DHT22;26682;51.660;19.338;2023-12-29T04:36:17;3.90;99.90
40952;DHT22;26682;51.660;19.338;2023-12-29T04:38:59;3.90;99.90
40952;DHT22;26682;51.660;19.338;2023-12-29T04:41:42;3.90;99.90
40952;DHT22;26682;51.660;19.338;2023-12-29T04:44:24;3.90;99.90
40952;DHT22;26682;51.660;19.338;2023-12-29T04:47:07;3.90;99.90
40952;DHT22;26682;51.660;19.338;2023-12-29T04:49:49;3.80;99.90
40952;DHT22;26682;51.660;19.338;2023-12-29T04:52:32;3.80;99.90
40952;DHT22;26682;51.660;19.338;2023-12-29T04:55:15;3.70;99.90
40952;DHT22;26682;51.660;19.338;2023-12-29T04:57:57;3.70;99.90
40952;DHT22;26682;51.660;19.338;2023-12-29T05:00:40;3.70;99.90
40952;DHT22;26682;51.660;19.338;2023-12-29T05:03:23;3.60;99.90
40952;DHT22;26682;51.660;19.338;2023-12-29T05:06:05;3.60;99.90
40952;DHT22;26682;51.660;19.338;2023-12-29T05:08:48;3.50;99.90
40952;DHT22;26682;51.660;19.338;2023-12-29T05:11:30;3.50;99.90
40952;DHT22;26682;51.660;19.338;2023-12-29T05:14:13;3.40;99.90
40952;DHT22;26682;51.660;19.338;2023-12-29T05:16:55;3.40;99.90
40952;DHT22;26682;51.660;19.338;2023-12-29T05:19:38;3.40;99.90
40952;DHT22;26682;51.660;19.338;2023-12-29T05:22:20;3.40;99.90
40952;DHT22;26682;51.660;19.338;2023-12-29T05:25:04;3.40;99.90
40952;DHT22;26682;51.660;19.338;2023-12-29T05:27:47;3.40;99.90
40952;DHT22;26682;51.660;19.338;2023-12-29T05:30:30;3.40;99.90
40952;DHT22;26682;51.660;19.338;2023-12-29T05:33:14;3.40;99.90
40952;DHT22;26682;51.660;19.338;2023-12-29T05:35:57;3.40;99.90
40952;DHT22;26682;51.660;19.338;2023-12-29T05:38:40;3.40;99.90
40952;DHT22;26682;51.660;19.338;2023-12-29T05:41:23;3.40;99.90
40952;DHT22;26682;51.660;19.338;2023-12-29T05:44:05;3.40;99.90
40952;DHT22;26682;51.660;19.338;2023-12-29T05:46:48;3.40;99.90
40952;DHT22;26682;51.660;19.338;2023-12-29T05:49:31;3.40;99.90
40952;DHT22;26682;51.660;19.338;2023-12-29T05:52:14;3.40;99.90
40952;DHT22;26682;51.660;19.338;2023-12-29T05:54:56;3.40;99.90
40952;DHT22;26682;51.660;19.338;2023-12-29T05:57:39;3.50;99.90
40952;DHT22;26682;51.660;19.338;2023-12-29T06:00:22;3.50;99.90
40952;DHT22;26682;51.660;19.338;2023-12-29T06:03:04;3.60;99.90
40952;DHT22;26682;51.660;19.338;2023-12-29T06:05:47;3.60;99.90
40952;DHT22;26682;51.660;19.338;2023-12-29T06:08:30;3.70;99.90
40952;DHT22;26682;51.660;19.338;2023-12-29T06:11:16;3.80;99.90
40952;DHT22;26682;51.660;19.338;2023-12-29T06:13:59;3.80;99.90
40952;DHT22;26682;51.660;19.338;2023-12-29T06:16:41;3.90;99.90
40952;DHT22;26682;51.660;19.338;2023-12-29T06:19:24;3.90;99.90
40952;DHT22;26682;51.660;19.338;2023-12-29T06:22:06;4.00;99.90
40952;DHT22;26682;51.660;19.338;2023-12-29T06:24:53;4.00;99.90
40952;DHT22;26682;51.660;19.338;2023-12-29T06:27:36;4.10;99.90
40952;DHT22;26682;51.660;19.338;2023-12-29T06:30:20;4.10;99.90
40952;DHT22;26682;51.660;19.338;2023-12-29T06:33:02;4.20;99.90
40952;DHT22;26682;51.660;19.338;2023-12-29T06:35:45;4.20;99.90
40952;DHT22;26682;51.660;19.338;2023-12-29T06:38:27;4.30;99.90
40952;DHT22;26682;51.660;19.338;2023-12-29T06:41:10;4.40;99.90
40952;DHT22;26682;51.660;19.338;2023-12-29T06:43:54;4.40;99.90
40952;DHT22;26682;51.660;19.338;2023-12-29T06:46:40;4.50;99.90
40952;DHT22;26682;51.660;19.338;2023-12-29T06:49:22;4.50;99.90
40952;DHT22;26682;51.660;19.338;2023-12-29T06:52:05;4.60;99.90
40952;DHT22;26682;51.660;19.338;2023-12-29T06:54:48;4.60;99.90
40952;DHT22;26682;51.660;19.338;2023-12-29T06:57:30;4.70;99.90
40952;DHT22;26682;51.660;19.338;2023-12-29T07:00:13;4.70;99.90
40952;DHT22;26682;51.660;19.338;2023-12-29T07:02:56;4.70;99.90
40952;DHT22;26682;51.660;19.338;2023-12-29T07:05:38;4.70;99.90
40952;DHT22;26682;51.660;19.338;2023-12-29T07:08:21;4.70;99.90
40952;DHT22;26682;51.660;19.338;2023-12-29T07:11:03;4.70;99.90
40952;DHT22;26682;51.660;19.338;2023-12-29T07:13:47;4.70;99.90
40952;DHT22;26682;51.660;19.338;2023-12-29T07:16:29;4.70;99.90
40952;DHT22;26682;51.660;19.338;2023-12-29T07:19:12;4.70;99.90
40952;DHT22;26682;51.660;19.338;2023-12-29T07:21:54;4.80;99.90
40952;DHT22;26682;51.660;19.338;2023-12-29T07:24:37;4.80;99.90
40952;DHT22;26682;51.660;19.338;2023-12-29T07:27:20;4.80;99.90
40952;DHT22;26682;51.660;19.338;2023-12-29T07:30:03;4.80;99.90
40952;DHT22;26682;51.660;19.338;2023-12-29T07:32:46;4.70;99.90
40952;DHT22;26682;51.660;19.338;2023-12-29T07:35:29;4.70;99.90
40952;DHT22;26682;51.660;19.338;2023-12-29T07:38:13;4.70;99.90
40952;DHT22;26682;51.660;19.338;2023-12-29T07:40:55;4.70;99.90
40952;DHT22;26682;51.660;19.338;2023-12-29T07:43:38;4.70;99.90
40952;DHT22;26682;51.660;19.338;2023-12-29T07:46:26;4.70;99.90
40952;DHT22;26682;51.660;19.338;2023-12-29T07:49:09;4.60;99.90
40952;DHT22;26682;51.660;19.338;2023-12-29T07:51:53;4.60;99.90
40952;DHT22;26682;51.660;19.338;2023-12-29T07:54:35;4.60;99.90
40952;DHT22;26682;51.660;19.338;2023-12-29T07:57:18;4.60;99.90
40952;DHT22;26682;51.660;19.338;2023-12-29T08:00:03;4.60;99.90
40952;DHT22;26682;51.660;19.338;2023-12-29T08:02:53;4.60;99.90
40952;DHT22;26682;51.660;19.338;2023-12-29T08:05:35;4.60;99.90
40952;DHT22;26682;51.660;19.338;2023-12-29T08:08:21;4.70;99.90
40952;DHT22;26682;51.660;19.338;2023-12-29T08:11:03;4.80;99.90
40952;DHT22;26682;51.660;19.338;2023-12-29T08:13:48;4.80;99.90
40952;DHT22;26682;51.660;19.338;2023-12-29T08:16:31;4.80;99.90
40952;DHT22;26682;51.660;19.338;2023-12-29T08:19:13;4.80;99.90
40952;DHT22;26682;51.660;19.338;2023-12-29T08:21:57;4.90;99.90
40952;DHT22;26682;51.660;19.338;2023-12-29T08:24:41;5.00;99.90
40952;DHT22;26682;51.660;19.338;2023-12-29T08:27:26;5.00;99.90
40952;DHT22;26682;51.660;19.338;2023-12-29T08:30:09;5.10;99.90
40952;DHT22;26682;51.660;19.338;2023-12-29T08:32:51;5.10;99.90
40952;DHT22;26682;51.660;19.338;2023-12-29T08:35:34;5.10;99.90
40952;DHT22;26682;51.660;19.338;2023-12-29T08:38:17;5.10;99.90
40952;DHT22;26682;51.660;19.338;2023-12-29T08:41:00;5.20;99.90
40952;DHT22;26682;51.660;19.338;2023-12-29T08:43:42;5.20;99.90
40952;DHT22;26682;51.660;19.338;2023-12-29T08:46:25;5.30;99.90
40952;DHT22;26682;51.660;19.338;2023-12-29T08:49:07;5.30;99.90
40952;DHT22;26682;51.660;19.338;2023-12-29T08:51:50;5.40;99.90
40952;DHT22;26682;51.660;19.338;2023-12-29T08:54:33;5.40;99.90
40952;DHT22;26682;51.660;19.338;2023-12-29T08:57:16;5.50;99.90
40952;DHT22;26682;51.660;19.338;2023-12-29T08:59:58;5.50;99.90
40952;DHT22;26682;51.660;19.338;2023-12-29T09:02:41;5.60;99.90
40952;DHT22;26682;51.660;19.338;2023-12-29T09:05:23;5.60;99.90
40952;DHT22;26682;51.660;19.338;2023-12-29T09:08:06;5.70;99.90
40952;DHT22;26682;51.660;19.338;2023-12-29T09:14:01;5.90;99.90
40952;DHT22;26682;51.660;19.338;2023-12-29T09:16:44;6.00;99.90
40952;DHT22;26682;51.660;19.338;2023-12-29T09:19:28;6.00;99.90
40952;DHT22;26682;51.660;19.338;2023-12-29T09:22:21;6.10;99.90
40952;DHT22;26682;51.660;19.338;2023-12-29T09:25:04;6.20;99.90
40952;DHT22;26682;51.660;19.338;2023-12-29T09:27:47;6.20;99.90
40952;DHT22;26682;51.660;19.338;2023-12-29T09:30:31;6.20;99.90
40952;DHT22;26682;51.660;19.338;2023-12-29T09:33:14;6.30;99.90
40952;DHT22;26682;51.660;19.338;2023-12-29T09:35:56;6.40;99.90
40952;DHT22;26682;51.660;19.338;2023-12-29T09:38:39;6.50;99.90
40952;DHT22;26682;51.660;19.338;2023-12-29T09:41:24;6.50;99.90
40952;DHT22;26682;51.660;19.338;2023-12-29T09:44:13;6.60;99.90
40952;DHT22;26682;51.660;19.338;2023-12-29T09:47:00;6.70;99.90
40952;DHT22;26682;51.660;19.338;2023-12-29T09:49:44;6.70;99.90
40952;DHT22;26682;51.660;19.338;2023-12-29T09:52:26;6.80;99.90
40952;DHT22;26682;51.660;19.338;2023-12-29T09:55:10;6.80;99.90
40952;DHT22;26682;51.660;19.338;2023-12-29T09:57:53;6.90;99.90
40952;DHT22;26682;51.660;19.338;2023-12-29T10:00:37;7.00;99.90
40952;DHT22;26682;51.660;19.338;2023-12-29T10:03:20;7.10;51.30
40952;DHT22;26682;51.660;19.338;2023-12-29T10:06:06;7.20;1.00
40952;DHT22;26682;51.660;19.338;2023-12-29T10:08:53;7.40;99.90
40952;DHT22;26682;51.660;19.338;2023-12-29T10:11:38;7.40;99.90
40952;DHT22;26682;51.660;19.338;2023-12-29T10:15:10;7.50;99.90
40952;DHT22;26682;51.660;19.338;2023-12-29T10:23:42;7.80;1.00
40952;DHT22;26682;51.660;19.338;2023-12-29T10:26:28;7.90;99.90
40952;DHT22;26682;51.660;19.338;2023-12-29T10:29:12;7.90;99.90
40952;DHT22;26682;51.660;19.338;2023-12-29T10:31:56;8.00;99.90
40952;DHT22;26682;51.660;19.338;2023-12-29T10:34:39;8.00;99.90
40952;DHT22;26682;51.660;19.338;2023-12-29T10:37:24;8.10;99.30
40952;DHT22;26682;51.660;19.338;2023-12-29T10:40:08;8.20;47.70
40952;DHT22;26682;51.660;19.338;2023-12-29T10:42:54;8.10;15.60
40952;DHT22;26682;51.660;19.338;2023-12-29T10:45:38;8.10;1.00
40952;DHT22;26682;51.660;19.338;2023-12-29T10:48:21;8.10;1.00
40952;DHT22;26682;51.660;19.338;2023-12-29T10:51:07;8.00;1.00
40952;DHT22;26682;51.660;19.338;2023-12-29T10:53:55;8.10;1.00
40952;DHT22;26682;51.660;19.338;2023-12-29T10:56:39;8.10;1.00
40952;DHT22;26682;51.660;19.338;2023-12-29T10:59:21;8.20;1.00
40952;DHT22;26682;51.660;19.338;2023-12-29T11:02:04;8.40;1.00
40952;DHT22;26682;51.660;19.338;2023-12-29T11:04:48;8.60;1.00
40952;DHT22;26682;51.660;19.338;2023-12-29T11:07:38;8.60;1.00
40952;DHT22;26682;51.660;19.338;2023-12-29T11:10:21;8.70;1.00
40952;DHT22;26682;51.660;19.338;2023-12-29T11:13:04;8.80;1.00
40952;DHT22;26682;51.660;19.338;2023-12-29T11:15:48;8.90;1.00
40952;DHT22;26682;51.660;19.338;2023-12-29T11:18:32;8.90;1.00
40952;DHT22;26682;51.660;19.338;2023-12-29T11:21:16;9.00;1.00
40952;DHT22;26682;51.660;19.338;2023-12-29T11:23:59;9.00;1.00
40952;DHT22;26682;51.660;19.338;2023-12-29T11:26:43;9.00;1.00
40952;DHT22;26682;51.660;19.338;2023-12-29T11:29:26;9.10;99.90
40952;DHT22;26682;51.660;19.338;2023-12-29T11:32:16;9.20;99.90
40952;DHT22;26682;51.660;19.338;2023-12-29T11:35:11;9.30;99.90
40952;DHT22;26682;51.660;19.338;2023-12-29T11:41:08;9.30;99.90
40952;DHT22;26682;51.660;19.338;2023-12-29T11:44:00;9.10;99.90
40952;DHT22;26682;51.660;19.338;2023-12-29T11:46:44;9.00;99.90
40952;DHT22;26682;51.660;19.338;2023-12-29T11:49:29;9.10;99.90
40952;DHT22;26682;51.660;19.338;2023-12-29T11:52:37;9.10;99.90
40952;DHT22;26682;51.660;19.338;2023-12-29T11:55:21;9.10;99.90
40952;DHT22;26682;51.660;19.338;2023-12-29T11:58:05;9.20;99.90
40952;DHT22;26682;51.660;19.338;2023-12-29T12:01:05;9.30;99.90
40952;DHT22;26682;51.660;19.338;2023-12-29T12:03:48;9.30;99.90
40952;DHT22;26682;51.660;19.338;2023-12-29T12:06:38;9.40;99.90
40952;DHT22;26682;51.660;19.338;2023-12-29T12:09:23;9.30;99.90
40952;DHT22;26682;51.660;19.338;2023-12-29T12:12:06;9.30;99.90
40952;DHT22;26682;51.660;19.338;2023-12-29T12:14:51;9.30;99.90
40952;DHT22;26682;51.660;19.338;2023-12-29T12:17:34;9.30;99.90
40952;DHT22;26682;51.660;19.338;2023-12-29T12:20:19;9.30;99.90
40952;DHT22;26682;51.660;19.338;2023-12-29T12:23:19;9.30;99.90
40952;DHT22;26682;51.660;19.338;2023-12-29T12:26:04;9.20;99.90
40952;DHT22;26682;51.660;19.338;2023-12-29T12:28:52;9.30;99.90
40952;DHT22;26682;51.660;19.338;2023-12-29T12:31:35;9.30;97.70
40952;DHT22;26682;51.660;19.338;2023-12-29T12:34:18;9.20;96.40
40952;DHT22;26682;51.660;19.338;2023-12-29T12:37:03;9.20;91.70
40952;DHT22;26682;51.660;19.338;2023-12-29T12:39:46;9.20;91.20
40952;DHT22;26682;51.660;19.338;2023-12-29T12:42:28;9.20;86.30
40952;DHT22;26682;51.660;19.338;2023-12-29T12:45:12;9.20;76.80
40952;DHT22;26682;51.660;19.338;2023-12-29T12:48:02;9.20;72.50
40952;DHT22;26682;51.660;19.338;2023-12-29T12:50:46;9.20;68.10
40952;DHT22;26682;51.660;19.338;2023-12-29T12:53:30;9.20;74.30
40952;DHT22;26682;51.660;19.338;2023-12-29T12:56:13;9.10;72.80
40952;DHT22;26682;51.660;19.338;2023-12-29T12:58:57;9.10;77.70
40952;DHT22;26682;51.660;19.338;2023-12-29T13:01:40;9.10;79.50
40952;DHT22;26682;51.660;19.338;2023-12-29T13:04:24;9.00;77.90
40952;DHT22;26682;51.660;19.338;2023-12-29T13:07:06;9.00;86.70
40952;DHT22;26682;51.660;19.338;2023-12-29T13:09:50;9.00;90.80
40952;DHT22;26682;51.660;19.338;2023-12-29T13:12:34;8.90;98.30
40952;DHT22;26682;51.660;19.338;2023-12-29T13:15:17;8.90;99.90
40952;DHT22;26682;51.660;19.338;2023-12-29T13:17:59;8.90;99.90
40952;DHT22;26682;51.660;19.338;2023-12-29T13:20:46;8.90;99.90
40952;DHT22;26682;51.660;19.338;2023-12-29T13:23:29;8.90;99.90
40952;DHT22;26682;51.660;19.338;2023-12-29T13:26:12;8.80;99.90
40952;DHT22;26682;51.660;19.338;2023-12-29T13:28:55;8.80;99.90
40952;DHT22;26682;51.660;19.338;2023-12-29T13:31:38;8.70;99.90
40952;DHT22;26682;51.660;19.338;2023-12-29T13:34:29;8.70;99.90
40952;DHT22;26682;51.660;19.338;2023-12-29T13:37:30;8.70;99.90
40952;DHT22;26682;51.660;19.338;2023-12-29T13:40:31;8.70;99.90
40952;DHT22;26682;51.660;19.338;2023-12-29T13:43:18;8.70;99.90
40952;DHT22;26682;51.660;19.338;2023-12-29T13:46:02;8.60;99.90
40952;DHT22;26682;51.660;19.338;2023-12-29T13:48:47;8.60;99.90
40952;DHT22;26682;51.660;19.338;2023-12-29T13:51:33;8.60;99.90
40952;DHT22;26682;51.660;19.338;2023-12-29T13:54:16;8.60;99.90
40952;DHT22;26682;51.660;19.338;2023-12-29T13:56:59;8.60;99.90
40952;DHT22;26682;51.660;19.338;2023-12-29T13:59:41;8.50;99.90
40952;DHT22;26682;51.660;19.338;2023-12-29T14:02:31;8.40;99.90
40952;DHT22;26682;51.660;19.338;2023-12-29T14:05:23;8.30;99.90
40952;DHT22;26682;51.660;19.338;2023-12-29T14:08:23;8.30;99.90
40952;DHT22;26682;51.660;19.338;2023-12-29T14:11:08;8.20;99.90
40952;DHT22;26682;51.660;19.338;2023-12-29T14:13:51;8.20;99.90
40952;DHT22;26682;51.660;19.338;2023-12-29T14:16:41;8.20;99.90
40952;DHT22;26682;51.660;19.338;2023-12-29T14:19:24;8.10;99.90
40952;DHT22;26682;51.660;19.338;2023-12-29T14:22:08;8.10;1.00
40952;DHT22;26682;51.660;19.338;2023-12-29T14:25:05;8.00;1.00
40952;DHT22;26682;51.660;19.338;2023-12-29T14:27:52;8.00;1.00
40952;DHT22;26682;51.660;19.338;2023-12-29T14:30:35;7.90;1.00
40952;DHT22;26682;51.660;19.338;2023-12-29T14:33:18;7.90;1.00
40952;DHT22;26682;51.660;19.338;2023-12-29T14:36:01;7.90;1.00
40952;DHT22;26682;51.660;19.338;2023-12-29T14:38:43;7.90;1.00
40952;DHT22;26682;51.660;19.338;2023-12-29T14:41:27;7.80;3.90
40952;DHT22;26682;51.660;19.338;2023-12-29T14:44:10;7.80;70.20
40952;DHT22;26682;51.660;19.338;2023-12-29T14:46:53;7.70;71.10
40952;DHT22;26682;51.660;19.338;2023-12-29T14:49:37;7.70;99.90
40952;DHT22;26682;51.660;19.338;2023-12-29T14:52:19;7.70;99.90
40952;DHT22;26682;51.660;19.338;2023-12-29T14:55:02;7.70;99.90
40952;DHT22;26682;51.660;19.338;2023-12-29T14:57:45;7.60;99.90
40952;DHT22;26682;51.660;19.338;2023-12-29T15:00:29;7.50;99.90
40952;DHT22;26682;51.660;19.338;2023-12-29T15:03:13;7.50;99.90
40952;DHT22;26682;51.660;19.338;2023-12-29T15:05:58;7.50;99.90
40952;DHT22;26682;51.660;19.338;2023-12-29T15:08:40;7.40;99.90
40952;DHT22;26682;51.660;19.338;2023-12-29T15:11:23;7.40;99.90
40952;DHT22;26682;51.660;19.338;2023-12-29T15:14:06;7.40;1.00
40952;DHT22;26682;51.660;19.338;2023-12-29T15:16:48;7.40;1.00
40952;DHT22;26682;51.660;19.338;2023-12-29T15:19:31;7.50;1.00
40952;DHT22;26682;51.660;19.338;2023-12-29T15:22:14;7.50;1.00
40952;DHT22;26682;51.660;19.338;2023-12-29T15:24:57;7.50;1.00
40952;DHT22;26682;51.660;19.338;2023-12-29T15:27:40;7.50;1.00
40952;DHT22;26682;51.660;19.338;2023-12-29T15:30:23;7.50;1.00
40952;DHT22;26682;51.660;19.338;2023-12-29T15:33:06;7.50;1.00
40952;DHT22;26682;51.660;19.338;2023-12-29T15:35:48;7.50;1.00
40952;DHT22;26682;51.660;19.338;2023-12-29T15:38:32;7.40;1.00
40952;DHT22;26682;51.660;19.338;2023-12-29T15:41:15;7.40;1.00
40952;DHT22;26682;51.660;19.338;2023-12-29T15:43:57;7.40;1.00
40952;DHT22;26682;51.660;19.338;2023-12-29T15:46:40;7.40;1.00
40952;DHT22;26682;51.660;19.338;2023-12-29T15:49:23;7.40;1.00
40952;DHT22;26682;51.660;19.338;2023-12-29T15:52:05;7.40;1.00
40952;DHT22;26682;51.660;19.338;2023-12-29T15:54:48;7.40;99.90
40952;DHT22;26682;51.660;19.338;2023-12-29T15:57:30;7.40;99.90
40952;DHT22;26682;51.660;19.338;2023-12-29T16:00:14;7.40;99.90
40952;DHT22;26682;51.660;19.338;2023-12-29T16:02:56;7.40;99.90
40952;DHT22;26682;51.660;19.338;2023-12-29T16:05:39;7.40;99.90
40952;DHT22;26682;51.660;19.338;2023-12-29T16:08:22;7.40;99.90
40952;DHT22;26682;51.660;19.338;2023-12-29T16:11:04;7.40;99.90
40952;DHT22;26682;51.660;19.338;2023-12-29T16:13:48;7.40;99.90
40952;DHT22;26682;51.660;19.338;2023-12-29T16:16:31;7.50;99.90
40952;DHT22;26682;51.660;19.338;2023-12-29T16:19:14;7.60;99.90
40952;DHT22;26682;51.660;19.338;2023-12-29T16:21:57;7.60;99.90
40952;DHT22;26682;51.660;19.338;2023-12-29T16:24:39;7.60;99.90
40952;DHT22;26682;51.660;19.338;2023-12-29T16:27:22;7.60;99.90
40952;DHT22;26682;51.660;19.338;2023-12-29T16:30:05;7.60;99.90
40952;DHT22;26682;51.660;19.338;2023-12-29T16:32:49;7.60;99.90
40952;DHT22;26682;51.660;19.338;2023-12-29T16:35:31;7.60;99.90
40952;DHT22;26682;51.660;19.338;2023-12-29T16:38:14;7.60;99.90
40952;DHT22;26682;51.660;19.338;2023-12-29T16:40:56;7.60;99.90
40952;DHT22;26682;51.660;19.338;2023-12-29T16:43:41;7.60;99.90
40952;DHT22;26682;51.660;19.338;2023-12-29T16:46:23;7.60;99.90
40952;DHT22;26682;51.660;19.338;2023-12-29T16:49:06;7.70;99.90
40952;DHT22;26682;51.660;19.338;2023-12-29T16:51:49;7.70;99.90
40952;DHT22;26682;51.660;19.338;2023-12-29T16:54:31;7.70;99.90
40952;DHT22;26682;51.660;19.338;2023-12-29T16:57:17;7.70;96.40
40952;DHT22;26682;51.660;19.338;2023-12-29T16:59:59;7.60;95.20
40952;DHT22;26682;51.660;19.338;2023-12-29T17:02:42;7.50;90.20
40952;DHT22;26682;51.660;19.338;2023-12-29T17:05:24;7.50;99.90
40952;DHT22;26682;51.660;19.338;2023-12-29T17:08:07;7.50;99.90
40952;DHT22;26682;51.660;19.338;2023-12-29T17:10:50;7.50;99.70
40952;DHT22;26682;51.660;19.338;2023-12-29T17:13:32;7.50;99.60
40952;DHT22;26682;51.660;19.338;2023-12-29T17:16:16;7.50;98.20
40952;DHT22;26682;51.660;19.338;2023-12-29T17:19:00;7.60;91.10
40952;DHT22;26682;51.660;19.338;2023-12-29T17:21:43;7.60;91.00
40952;DHT22;26682;51.660;19.338;2023-12-29T17:24:25;7.60;83.40
40952;DHT22;26682;51.660;19.338;2023-12-29T17:27:08;7.70;73.60
40952;DHT22;26682;51.660;19.338;2023-12-29T17:29:50;7.70;47.20
40952;DHT22;26682;51.660;19.338;2023-12-29T17:32:34;7.90;37.10
40952;DHT22;26682;51.660;19.338;2023-12-29T17:35:17;7.90;18.50